aviador You're here:

CYHM Decoded Metar

HAMILTON in ON, CANADA
Report Time2017-12-17 08:00:00
UTC Time2017-12-17 08:14:52
Flight Rules vfr VFR
Wind020° at 06 kt
W.Decomp.*RWY 06: 5.2 kt HW 3 kt LCW
RWY 12: 6 kt LCW
W.Rank020° ranks 21
Current wind is below 020° avg. (7.7)
Visibility9999 m
Phenomena:N/A
Clouds:Overcast 039 Hf
Expected CloudBase > 2,000 ft AGL from Temp-Dew spread
Ceiling3,900 ft
Temp-8°C (ISA -21)
Dew Point-13°C (68% RH)
AAT-13.4°C
QNH1024 hPa
Density Alt-2,224 ft
Elevation781 ft
Report Wrong Elevation
Raw Report
CYHM 170800Z 02006KT 15SM OVC039 M08/M13 A3025 RMK SC8 SLP261=

Extra information for CYHM:More info

Metar Taf Metar & Taf Last 4 Metars F.Rules Stats Wind Profile Meteogram Temp Stats Airport Information Weather charts Add Link Nearby VenuesMetar ALERT Operation Metar Decoded Social comments